Time;durP1;ratioP1;P1;durP2;ratioP2;P2;SDS_P1;SDS_P2;PMS_P1;PMS_P2;Temp;Humidity;BMP_temperature;BMP_pressure;BME280_temperature;BME280_humidity;BME280_pressure;Samples;Min_cycle;Max_cycle;Signal;HPM_P1;HPM_P2
2023/01/24 00:01:28;;;;;;;49.45;8.05;;;;;;;6.97;100.00;102510.66;5037519;28;20083;-81
2023/01/24 00:03:58;;;;;;;71.70;8.82;;;;;;;7.00;100.00;102524.50;5020911;28;20456;-81
2023/01/24 00:06:27;;;;;;;26.02;7.47;;;;;;;7.00;100.00;102518.41;5038539;28;20049;-81
2023/01/24 00:08:54;;;;;;;54.83;8.85;;;;;;;7.02;100.00;102519.19;5021292;28;20401;-80
2023/01/24 00:11:24;;;;;;;58.38;8.40;;;;;;;7.02;100.00;102511.31;5001196;28;20045;-80
2023/01/24 00:13:54;;;;;;;95.10;9.45;;;;;;;7.01;100.00;102510.44;5009457;28;20051;-81
2023/01/24 00:16:23;;;;;;;103.53;9.48;;;;;;;7.00;100.00;102508.75;4984989;28;20091;-81
2023/01/24 00:18:51;;;;;;;57.08;8.82;;;;;;;7.00;100.00;102502.63;5019534;28;20029;-81
2023/01/24 00:21:22;;;;;;;102.32;9.02;;;;;;;7.02;100.00;102513.94;5003644;28;20029;-81
2023/01/24 00:23:52;;;;;;;76.47;8.82;;;;;;;7.05;100.00;102508.53;5046218;28;20055;-81
2023/01/24 00:26:23;;;;;;;88.35;8.73;;;;;;;7.05;100.00;102504.13;5019009;28;20030;-81
2023/01/24 00:28:52;;;;;;;53.13;9.50;;;;;;;7.03;100.00;102523.50;5048092;28;20027;-80
2023/01/24 00:31:22;;;;;;;82.63;10.82;;;;;;;7.01;100.00;102513.06;5053148;28;20731;-80
2023/01/24 00:33:50;;;;;;;27.40;8.88;;;;;;;7.04;100.00;102509.47;5009539;28;20057;-81
2023/01/24 00:36:18;;;;;;;85.40;10.02;;;;;;;7.03;100.00;102510.38;5032420;28;20493;-80
2023/01/24 00:38:47;;;;;;;16.40;8.85;;;;;;;7.02;100.00;102514.78;5053151;28;20035;-80
2023/01/24 00:41:15;;;;;;;19.55;8.43;;;;;;;7.01;100.00;102515.69;5056599;28;20071;-81
2023/01/24 00:43:44;;;;;;;34.58;9.73;;;;;;;7.04;100.00;102517.34;5007953;28;20060;-80
2023/01/24 00:46:11;;;;;;;15.55;9.07;;;;;;;7.02;100.00;102516.56;5040035;28;20119;-81
2023/01/24 00:48:40;;;;;;;12.65;9.05;;;;;;;7.05;100.00;102519.91;5049032;28;20035;-81
2023/01/24 00:51:08;;;;;;;13.50;7.97;;;;;;;7.04;100.00;102519.97;5049901;28;20082;-80
2023/01/24 00:53:38;;;;;;;16.13;8.80;;;;;;;7.03;100.00;102521.75;5057354;28;20044;-80
2023/01/24 00:56:09;;;;;;;21.40;8.77;;;;;;;7.01;100.00;102515.69;5017876;28;20393;-80
2023/01/24 00:58:37;;;;;;;12.40;8.40;;;;;;;6.93;100.00;102516.03;5038643;28;20533;-80
2023/01/24 01:01:09;;;;;;;14.38;9.80;;;;;;;6.88;100.00;102511.94;5069674;28;20020;-80
2023/01/24 01:03:39;;;;;;;13.55;9.75;;;;;;;6.85;100.00;102519.94;5056363;28;20520;-81
2023/01/24 01:06:13;;;;;;;9.73;7.22;;;;;;;6.86;100.00;102519.88;5064178;28;20037;-80
2023/01/24 01:08:42;;;;;;;11.55;7.28;;;;;;;6.84;100.00;102511.19;5041310;28;20036;-80
2023/01/24 01:11:10;;;;;;;20.52;9.73;;;;;;;6.85;100.00;102512.91;5044885;28;20119;-80
2023/01/24 01:13:38;;;;;;;20.00;10.88;;;;;;;6.81;100.00;102513.97;5051041;28;20054;-80
2023/01/24 01:16:12;;;;;;;12.73;8.75;;;;;;;6.81;100.00;102519.22;5058174;28;20419;-80
2023/01/24 01:18:43;;;;;;;13.63;9.60;;;;;;;6.80;100.00;102512.28;5076074;28;20036;-81
2023/01/24 01:21:15;;;;;;;13.02;9.43;;;;;;;6.85;100.00;102512.06;5071966;28;20095;-80
2023/01/24 01:23:46;;;;;;;12.68;7.20;;;;;;;6.86;100.00;102505.88;5075132;28;20045;-80
2023/01/24 01:26:21;;;;;;;7.03;5.75;;;;;;;6.94;100.00;102509.03;5062507;28;20397;-80
2023/01/24 01:28:51;;;;;;;9.18;5.70;;;;;;;6.98;100.00;102507.09;5065760;28;20041;-79
2023/01/24 01:31:20;;;;;;;8.40;5.53;;;;;;;7.02;100.00;102509.53;5023644;28;20512;-80
2023/01/24 01:33:48;;;;;;;7.38;6.30;;;;;;;7.04;100.00;102507.66;5032183;28;20043;-80
2023/01/24 01:36:17;;;;;;;10.20;6.30;;;;;;;7.09;100.00;102501.38;5066469;28;20035;-80
2023/01/24 01:38:45;;;;;;;6.45;5.38;;;;;;;7.10;100.00;102490.78;5036431;28;20098;-80
2023/01/24 01:41:15;;;;;;;5.70;5.05;;;;;;;7.15;100.00;102490.56;5053346;28;20043;-80
2023/01/24 01:46:52;;;;;;;5.82;5.18;;;;;;;7.25;100.00;102498.84;5042574;28;20093;-80
2023/01/24 01:49:27;;;;;;;6.43;5.10;;;;;;;7.29;100.00;102506.53;5040090;28;20028;-80
2023/01/24 01:52:02;;;;;;;6.60;4.97;;;;;;;7.32;100.00;102508.19;5036786;28;20278;-80
2023/01/24 01:54:36;;;;;;;4.95;4.45;;;;;;;7.36;100.00;102499.22;5044419;28;20392;-80
2023/01/24 01:57:23;;;;;;;6.05;5.00;;;;;;;7.38;100.00;102513.16;5053225;28;20068;-80
2023/01/24 02:00:01;;;;;;;6.95;4.80;;;;;;;7.41;100.00;102510.38;5066274;28;20388;-81
2023/01/24 02:02:40;;;;;;;5.78;4.43;;;;;;;7.43;100.00;102515.56;5084639;28;20035;-81
2023/01/24 02:05:13;;;;;;;5.57;4.85;;;;;;;7.45;100.00;102519.81;5038416;28;20036;-81
2023/01/24 02:08:04;;;;;;;6.05;5.00;;;;;;;7.48;100.00;102516.22;5037854;28;20509;-81
2023/01/24 02:13:22;;;;;;;7.28;4.55;;;;;;;7.53;100.00;102518.63;5055258;28;20107;-80
2023/01/24 02:16:03;;;;;;;6.28;4.85;;;;;;;7.56;100.00;102521.09;5046454;28;20034;-80
2023/01/24 02:18:41;;;;;;;6.75;4.30;;;;;;;7.59;100.00;102528.00;5054933;28;20033;-80
2023/01/24 02:21:15;;;;;;;5.32;4.47;;;;;;;7.57;100.00;102522.81;5058661;28;20107;-81
2023/01/24 02:24:11;;;;;;;5.15;4.07;;;;;;;7.57;100.00;102539.47;5058112;28;20500;-80
2023/01/24 02:26:41;;;;;;;10.65;4.03;;;;;;;7.56;100.00;102537.72;5019361;28;20131;-80
2023/01/24 02:29:14;;;;;;;7.82;3.67;;;;;;;7.62;100.00;102546.28;5041841;28;20034;-80
2023/01/24 02:31:58;;;;;;;7.00;3.70;;;;;;;7.66;100.00;102543.41;5057700;28;20033;-81
2023/01/24 02:34:30;;;;;;;3.33;3.03;;;;;;;7.69;100.00;102545.06;5059652;28;20037;-80
2023/01/24 02:37:02;;;;;;;5.93;3.75;;;;;;;7.73;100.00;102548.38;5049754;28;20041;-81
2023/01/24 02:39:45;;;;;;;3.95;3.58;;;;;;;7.75;100.00;102551.81;5036234;28;20036;-80
2023/01/24 02:42:22;;;;;;;7.88;3.97;;;;;;;7.75;100.00;102555.31;5072185;28;20025;-81
2023/01/24 02:44:59;;;;;;;4.43;3.28;;;;;;;7.75;100.00;102550.03;5068278;28;20029;-81
2023/01/24 02:47:32;;;;;;;6.55;3.60;;;;;;;7.74;100.00;102556.22;5033925;28;20069;-81
2023/01/24 02:50:02;;;;;;;4.80;3.08;;;;;;;7.72;100.00;102554.59;5036418;28;20035;-81
2023/01/24 02:55:18;;;;;;;2.90;2.65;;;;;;;7.67;100.00;102558.31;5060491;28;20037;-81
2023/01/24 02:58:07;;;;;;;3.63;2.45;;;;;;;7.67;100.00;102554.81;5029141;28;20049;-81
2023/01/24 03:00:41;;;;;;;2.50;2.30;;;;;;;7.66;100.00;102556.56;5019763;28;20116;-80
2023/01/24 03:03:12;;;;;;;2.58;2.38;;;;;;;7.62;100.00;102554.16;5042240;28;20035;-81
2023/01/24 03:05:39;;;;;;;4.47;3.40;;;;;;;7.61;100.00;102555.09;5059265;28;20033;-81
2023/01/24 03:08:12;;;;;;;5.00;3.03;;;;;;;7.63;100.00;102556.72;5052577;28;20048;-80
2023/01/24 03:10:40;;;;;;;3.75;2.80;;;;;;;7.62;100.00;102548.91;5046788;28;20036;-80
2023/01/24 03:35:37;;;;;;;3.30;1.70;;;;;;;7.66;100.00;102563.66;5067363;28;20120;-80
2023/01/24 03:40:54;;;;;;;1.90;1.45;;;;;;;7.64;100.00;102560.22;5054277;28;20059;-80
2023/01/24 03:43:24;;;;;;;1.98;1.67;;;;;;;7.67;100.00;102563.56;5031239;28;20089;-80
2023/01/24 03:45:54;;;;;;;14.05;1.80;;;;;;;7.66;100.00;102558.38;5043087;28;20051;-80
2023/01/24 03:48:37;;;;;;;4.22;1.85;;;;;;;7.69;100.00;102571.41;5051887;28;20056;-80
2023/01/24 03:53:57;;;;;;;3.72;2.00;;;;;;;7.63;100.00;102569.88;5038638;28;20046;-80
2023/01/24 03:56:31;;;;;;;2.45;1.70;;;;;;;7.64;100.00;102582.13;5026545;28;20420;-80
2023/01/24 03:59:01;;;;;;;14.45;2.28;;;;;;;7.64;100.00;102583.91;5035554;28;20108;-81
2023/01/24 04:01:31;;;;;;;9.00;2.00;;;;;;;7.65;100.00;102580.34;5025220;28;20363;-80
2023/01/24 04:04:04;;;;;;;5.35;2.20;;;;;;;7.67;100.00;102574.09;5051828;28;20043;-81
2023/01/24 04:06:32;;;;;;;7.75;2.15;;;;;;;7.66;100.00;102588.16;5043115;28;20409;-81
2023/01/24 04:09:03;;;;;;;2.88;2.20;;;;;;;7.71;100.00;102590.59;5057960;28;20977;-80
2023/01/24 04:11:31;;;;;;;3.72;2.17;;;;;;;7.71;100.00;102593.22;5069357;28;20036;-81
2023/01/24 04:14:17;;;;;;;3.38;1.90;;;;;;;7.76;100.00;102587.72;5051313;28;20432;-80
2023/01/24 04:16:58;;;;;;;4.72;2.00;;;;;;;7.73;100.00;102588.75;5017201;28;20120;-81
2023/01/24 04:19:33;;;;;;;5.88;2.15;;;;;;;7.80;100.00;102597.22;5016515;28;20103;-80
2023/01/24 04:22:01;;;;;;;4.30;2.22;;;;;;;7.77;100.00;102600.81;5026083;28;20034;-80
2023/01/24 04:24:30;;;;;;;3.50;2.10;;;;;;;7.82;100.00;102590.06;5044377;28;20067;-80
2023/01/24 04:26:59;;;;;;;5.38;2.05;;;;;;;7.84;100.00;102592.63;5029664;28;20054;-80
2023/01/24 04:29:33;;;;;;;2.58;2.08;;;;;;;7.84;100.00;102595.25;5050365;28;20086;-80
2023/01/24 04:32:05;;;;;;;2.03;1.83;;;;;;;7.88;100.00;102597.72;5069765;28;20501;-80
2023/01/24 04:34:52;;;;;;;4.00;1.80;;;;;;;7.87;100.00;102595.97;5048306;28;20383;-80
2023/01/24 04:37:34;;;;;;;3.08;1.90;;;;;;;7.90;100.00;102593.19;5028358;28;20048;-80
2023/01/24 04:40:02;;;;;;;1.90;1.75;;;;;;;7.91;100.00;102592.28;5021042;28;20036;-80
2023/01/24 04:42:32;;;;;;;3.08;2.20;;;;;;;7.92;100.00;102596.63;5027190;28;20119;-80
2023/01/24 04:45:01;;;;;;;3.70;1.83;;;;;;;7.88;100.00;102597.72;5053698;28;20056;-80
2023/01/24 04:47:31;;;;;;;4.63;2.25;;;;;;;7.87;100.00;102592.50;5036063;28;20032;-80
2023/01/24 04:50:01;;;;;;;1.95;1.50;;;;;;;7.82;100.00;102592.69;5028305;28;20499;-80
2023/01/24 04:52:31;;;;;;;2.25;1.48;;;;;;;7.80;100.00;102590.16;5021105;28;20490;-81
2023/01/24 04:55:07;;;;;;;2.13;1.85;;;;;;;7.74;100.00;102593.06;5034181;28;20033;-80
2023/01/24 04:57:37;;;;;;;3.00;1.35;;;;;;;7.77;100.00;102592.91;5049924;28;20033;-80
2023/01/24 05:00:08;;;;;;;2.28;1.80;;;;;;;7.75;100.00;102584.25;5054529;28;20037;-80
2023/01/24 05:02:37;;;;;;;2.30;1.67;;;;;;;7.78;100.00;102589.38;5052107;28;20022;-80
2023/01/24 05:05:07;;;;;;;3.90;1.80;;;;;;;7.74;100.00;102592.25;5030500;28;20036;-80
2023/01/24 05:07:37;;;;;;;3.17;2.92;;;;;;;7.70;100.00;102586.25;5062695;28;20024;-81
2023/01/24 05:10:11;;;;;;;2.78;2.10;;;;;;;7.67;100.00;102587.25;5013395;28;20409;-80
2023/01/24 05:12:41;;;;;;;7.82;2.40;;;;;;;7.68;100.00;102591.59;5053307;28;20041;-81
2023/01/24 05:15:17;;;;;;;3.70;2.22;;;;;;;7.66;100.00;102585.53;5032469;28;20048;-81
2023/01/24 05:17:46;;;;;;;3.10;2.00;;;;;;;7.69;100.00;102588.03;5010449;28;20029;-81
2023/01/24 05:20:17;;;;;;;2.30;1.80;;;;;;;7.66;100.00;102593.44;5062345;28;20040;-81
2023/01/24 05:22:46;;;;;;;3.08;1.80;;;;;;;7.67;100.00;102595.16;5035346;28;20116;-80
2023/01/24 05:25:16;;;;;;;2.22;1.52;;;;;;;7.62;100.00;102586.63;5027676;28;20135;-80
2023/01/24 05:27:45;;;;;;;3.85;1.80;;;;;;;7.62;100.00;102585.75;5022476;28;20036;-80
2023/01/24 05:30:15;;;;;;;3.75;1.70;;;;;;;7.60;100.00;102593.72;5025497;28;20033;-80
2023/01/24 05:32:43;;;;;;;3.10;1.50;;;;;;;7.57;100.00;102585.97;5020624;28;20068;-81
2023/01/24 05:35:10;;;;;;;2.38;1.63;;;;;;;7.58;100.00;102590.28;5037854;28;20116;-81
2023/01/24 05:37:39;;;;;;;2.03;1.73;;;;;;;7.57;100.00;102594.72;5042092;28;20072;-80
2023/01/24 05:40:09;;;;;;;2.08;1.50;;;;;;;7.60;100.00;102588.47;5015963;28;20116;-80
2023/01/24 05:42:38;;;;;;;1.50;1.40;;;;;;;7.60;100.00;102582.34;5010868;28;20033;-81
2023/01/24 05:45:10;;;;;;;2.22;1.60;;;;;;;7.66;100.00;102582.06;5050557;28;20599;-80
2023/01/24 05:47:40;;;;;;;3.85;1.42;;;;;;;7.68;100.00;102580.19;5023016;28;20152;-80
2023/01/24 05:50:13;;;;;;;2.38;1.80;;;;;;;7.69;100.00;102574.03;5019821;28;20036;-80
2023/01/24 05:52:41;;;;;;;3.08;1.50;;;;;;;7.68;100.00;102586.31;5015170;28;20029;-80
2023/01/24 05:55:11;;;;;;;2.10;1.50;;;;;;;7.66;100.00;102587.34;5019291;28;20032;-80
2023/01/24 05:57:47;;;;;;;2.42;1.77;;;;;;;7.60;100.00;102593.72;5018365;28;20112;-80
2023/01/24 06:00:15;;;;;;;1.67;1.58;;;;;;;7.54;100.00;102594.00;5040278;28;20091;-80
2023/01/24 06:02:45;;;;;;;2.53;1.88;;;;;;;7.47;100.00;102587.34;5023640;28;20488;-81
2023/01/24 06:05:14;;;;;;;1.98;1.50;;;;;;;7.45;100.00;102582.13;5031347;28;20021;-81
2023/01/24 06:07:41;;;;;;;3.92;1.80;;;;;;;7.43;100.00;102595.38;5040815;28;20366;-81
2023/01/24 06:10:10;;;;;;;3.03;1.70;;;;;;;7.46;100.00;102594.38;5034959;28;20024;-81
2023/01/24 06:12:48;;;;;;;2.33;1.98;;;;;;;7.38;100.00;102593.84;5011399;28;20029;-81
2023/01/24 06:15:18;;;;;;;7.15;1.80;;;;;;;7.36;100.00;102593.09;5017101;28;20095;-80
2023/01/24 06:17:48;;;;;;;3.45;2.55;;;;;;;7.30;100.00;102605.59;5035672;28;20081;-80
2023/01/24 06:20:19;;;;;;;4.53;2.40;;;;;;;7.27;100.00;102603.09;5022329;28;20560;-80
2023/01/24 06:22:55;;;;;;;6.07;3.28;;;;;;;7.28;100.00;102602.16;5030908;28;20040;-80
2023/01/24 06:25:26;;;;;;;5.63;2.20;;;;;;;7.30;100.00;102609.97;5041167;28;20048;-80
2023/01/24 06:27:56;;;;;;;35.50;13.18;;;;;;;7.31;100.00;102612.53;5066172;28;20028;-80
2023/01/24 06:30:26;;;;;;;54.63;20.38;;;;;;;7.33;100.00;102607.22;5039420;28;20131;-80
2023/01/24 06:33:23;;;;;;;21.73;4.72;;;;;;;7.36;100.00;102614.13;5027753;28;20033;-80
2023/01/24 06:36:11;;;;;;;16.07;3.73;;;;;;;7.34;100.00;102610.72;5061554;28;20454;-80
2023/01/24 06:38:41;;;;;;;27.45;3.60;;;;;;;7.33;100.00;102609.84;5052225;28;20389;-80
2023/01/24 06:41:17;;;;;;;15.07;2.30;;;;;;;7.34;100.00;102606.31;5037540;28;20033;-80
2023/01/24 06:43:45;;;;;;;24.10;2.70;;;;;;;7.32;100.00;102610.78;5031491;28;20032;-80
2023/01/24 06:46:14;;;;;;;6.72;2.13;;;;;;;7.32;100.00;102603.75;5021995;28;20033;-80
2023/01/24 06:48:45;;;;;;;16.48;2.65;;;;;;;7.34;100.00;102602.81;5015284;28;20037;-80
2023/01/24 06:51:15;;;;;;;8.70;2.38;;;;;;;7.32;100.00;102611.66;5065437;28;20029;-81
2023/01/24 06:53:44;;;;;;;3.75;3.08;;;;;;;7.35;100.00;102615.03;5037685;28;20033;-81
2023/01/24 06:56:12;;;;;;;15.57;2.80;;;;;;;7.34;100.00;102605.44;5037713;28;20021;-80
2023/01/24 06:58:39;;;;;;;47.05;3.50;;;;;;;7.39;100.00;102608.72;5016151;28;20094;-80
2023/01/24 07:01:07;;;;;;;26.15;2.53;;;;;;;7.38;100.00;102609.63;5031762;28;20639;-80
2023/01/24 07:03:36;;;;;;;51.45;3.90;;;;;;;7.36;100.00;102606.25;5053735;28;20077;-80
2023/01/24 07:06:04;;;;;;;20.90;2.15;;;;;;;7.35;100.00;102610.63;5038483;28;20036;-80
2023/01/24 07:08:32;;;;;;;11.57;3.50;;;;;;;7.34;100.00;102601.06;5018901;28;20033;-80
2023/01/24 07:10:59;;;;;;;15.65;2.35;;;;;;;7.31;100.00;102604.66;5040437;28;20038;-80
2023/01/24 07:13:29;;;;;;;9.10;2.40;;;;;;;7.29;100.00;102603.84;5025057;28;20048;-80
2023/01/24 07:16:02;;;;;;;47.00;3.75;;;;;;;7.29;100.00;102611.75;5054362;28;20037;-81
2023/01/24 07:18:31;;;;;;;38.38;3.28;;;;;;;7.27;100.00;102607.50;5037696;28;20032;-81
2023/01/24 07:20:59;;;;;;;27.58;3.70;;;;;;;7.27;100.00;102610.13;4989080;28;20040;-80
2023/01/24 07:23:32;;;;;;;65.75;13.70;;;;;;;7.26;100.00;102608.44;5034836;28;20065;-80
2023/01/24 07:26:03;;;;;;;48.22;14.52;;;;;;;7.26;100.00;102613.69;5037807;28;20089;-80
2023/01/24 07:28:31;;;;;;;31.92;5.78;;;;;;;7.23;100.00;102604.13;5026808;28;20053;-80
2023/01/24 07:30:58;;;;;;;41.05;4.10;;;;;;;7.26;100.00;102613.69;5064001;28;20037;-80
2023/01/24 07:33:26;;;;;;;29.27;4.80;;;;;;;7.23;100.00;102609.41;5039996;28;20032;-80
2023/01/24 07:35:56;;;;;;;44.80;4.97;;;;;;;7.19;100.00;102603.44;5023275;28;20033;-80
2023/01/24 07:38:25;;;;;;;41.58;3.45;;;;;;;7.17;100.00;102604.41;5044426;28;20032;-80
2023/01/24 07:40:53;;;;;;;74.90;3.22;;;;;;;7.12;100.00;102606.41;5056752;28;20028;-80
2023/01/24 07:43:22;;;;;;;79.88;3.50;;;;;;;7.07;100.00;102606.63;5050422;28;20374;-79
2023/01/24 07:45:50;;;;;;;38.92;2.65;;;;;;;7.02;100.00;102605.97;5048064;28;20381;-80
2023/01/24 07:48:18;;;;;;;50.78;3.00;;;;;;;7.02;100.00;102613.84;5065416;28;20037;-80
2023/01/24 07:50:46;;;;;;;29.23;2.42;;;;;;;6.94;100.00;102612.38;5048718;28;20044;-80
2023/01/24 07:53:15;;;;;;;137.20;5.00;;;;;;;6.95;100.00;102615.88;5067518;28;20036;-80
2023/01/24 07:55:43;;;;;;;44.03;3.65;;;;;;;6.94;100.00;102625.53;5055190;28;20028;-80
2023/01/24 07:58:11;;;;;;;127.55;4.65;;;;;;;6.98;100.00;102618.38;5051720;28;20029;-80
2023/01/24 08:00:39;;;;;;;27.10;2.67;;;;;;;6.95;100.00;102614.13;5067600;28;20055;-80
2023/01/24 08:03:08;;;;;;;50.30;3.33;;;;;;;6.98;100.00;102615.75;5061812;28;20033;-80
2023/01/24 08:05:38;;;;;;;9.82;2.33;;;;;;;6.92;100.00;102611.63;5035319;28;20085;-80
2023/01/24 08:08:06;;;;;;;4.70;2.58;;;;;;;6.96;100.00;102625.47;5063338;28;20044;-80
2023/01/24 08:10:35;;;;;;;2.72;2.45;;;;;;;6.96;100.00;102617.56;5063695;28;20035;-80
2023/01/24 08:13:02;;;;;;;4.07;2.28;;;;;;;6.95;100.00;102624.63;5053320;28;20088;-80
2023/01/24 08:15:30;;;;;;;3.08;2.50;;;;;;;6.94;100.00;102611.56;5067805;28;20082;-80
2023/01/24 08:18:00;;;;;;;2.47;2.10;;;;;;;6.99;100.00;102621.88;5049487;28;20037;-80
2023/01/24 08:20:29;;;;;;;3.47;2.45;;;;;;;7.02;100.00;102616.47;5070928;28;20024;-80
2023/01/24 08:22:59;;;;;;;3.35;2.28;;;;;;;7.04;100.00;102627.78;5081854;28;20479;-80
2023/01/24 08:25:30;;;;;;;2.22;2.00;;;;;;;7.03;100.00;102629.56;5035986;28;20060;-80
2023/01/24 08:27:56;;;;;;;8.63;2.30;;;;;;;7.03;100.00;102632.19;5009785;28;20026;-80
2023/01/24 08:30:22;;;;;;;7.30;2.45;;;;;;;7.05;100.00;102626.88;5032195;28;20037;-80
2023/01/24 08:32:48;;;;;;;3.25;2.60;;;;;;;7.05;100.00;102630.34;5043084;28;20104;-79
2023/01/24 08:35:14;;;;;;;5.78;2.42;;;;;;;7.09;100.00;102635.47;5045358;28;20040;-80
2023/01/24 08:37:43;;;;;;;11.43;2.95;;;;;;;7.12;100.00;102641.44;5024738;28;20039;-80
2023/01/24 08:40:10;;;;;;;15.55;3.55;;;;;;;7.11;100.00;102631.84;5044220;28;20031;-80
2023/01/24 08:42:36;;;;;;;18.67;3.38;;;;;;;7.10;100.00;102632.78;5040086;28;20497;-80
2023/01/24 08:45:01;;;;;;;12.32;3.03;;;;;;;7.08;100.00;102624.09;5042783;28;20025;-81
2023/01/24 08:47:27;;;;;;;19.23;3.92;;;;;;;7.07;100.00;102619.78;5019660;28;20501;-80
2023/01/24 08:49:53;;;;;;;15.85;2.97;;;;;;;7.03;100.00;102619.03;5004744;28;20062;-80
2023/01/24 08:52:19;;;;;;;18.98;3.80;;;;;;;7.05;100.00;102625.09;5019547;28;20036;-80
2023/01/24 08:54:44;;;;;;;8.70;2.92;;;;;;;7.06;100.00;102632.06;5023221;28;20100;-81
2023/01/24 08:57:10;;;;;;;30.00;3.60;;;;;;;7.06;100.00;102626.78;5024791;28;20444;-80
2023/01/24 08:59:36;;;;;;;14.25;3.20;;;;;;;7.08;100.00;102634.63;5023708;28;20033;-80
2023/01/24 09:02:01;;;;;;;35.65;3.92;;;;;;;7.12;100.00;102641.44;5038232;28;20029;-80
2023/01/24 09:04:28;;;;;;;13.10;4.22;;;;;;;7.14;100.00;102636.13;5015852;28;20033;-80
2023/01/24 09:06:53;;;;;;;11.32;4.72;;;;;;;7.18;100.00;102638.53;5050186;28;20032;-80
2023/01/24 09:09:19;;;;;;;6.75;4.03;;;;;;;7.19;100.00;102640.28;5025209;28;20036;-80
2023/01/24 09:11:45;;;;;;;9.15;4.03;;;;;;;7.19;100.00;102637.63;5025849;28;20604;-80
2023/01/24 09:14:11;;;;;;;5.43;3.45;;;;;;;7.24;100.00;102633.94;5042245;28;20048;-80
2023/01/24 09:16:37;;;;;;;8.50;3.50;;;;;;;7.20;100.00;102639.34;5017591;28;20044;-80
2023/01/24 09:19:03;;;;;;;5.13;3.92;;;;;;;7.20;100.00;102631.44;5030139;28;20037;-80
2023/01/24 09:21:29;;;;;;;4.63;3.55;;;;;;;7.21;100.00;102632.31;5003179;28;20068;-80
2023/01/24 09:23:54;;;;;;;4.18;3.42;;;;;;;7.24;100.00;102637.44;5021664;28;20482;-80
2023/01/24 09:26:21;;;;;;;4.72;3.60;;;;;;;7.30;100.00;102626.63;5015816;28;20044;-80
2023/01/24 09:28:47;;;;;;;3.85;3.33;;;;;;;7.31;100.00;102641.47;5002221;28;20029;-80
2023/01/24 09:31:13;;;;;;;3.10;2.80;;;;;;;7.30;100.00;102645.06;5017690;28;20033;-81
2023/01/24 09:33:39;;;;;;;5.78;3.45;;;;;;;7.30;100.00;102639.78;5022697;28;20033;-80
2023/01/24 09:36:05;;;;;;;4.93;3.25;;;;;;;7.35;100.00;102642.22;5021400;28;20034;-81
2023/01/24 09:38:33;;;;;;;3.28;2.97;;;;;;;7.35;100.00;102638.72;5036355;28;20540;-81
2023/01/24 09:41:37;;;;;;;4.40;3.25;;;;;;;7.38;100.00;102644.69;5055415;28;20048;-80
2023/01/24 09:44:10;;;;;;;3.58;3.25;;;;;;;7.36;100.00;102643.91;5033913;28;20128;-80
2023/01/24 09:46:48;;;;;;;3.08;2.65;;;;;;;7.39;100.00;102648.19;5041825;28;20033;-80
2023/01/24 09:49:17;;;;;;;4.10;3.08;;;;;;;7.37;100.00;102652.66;5056928;28;20033;-80
2023/01/24 09:51:53;;;;;;;5.50;2.42;;;;;;;7.41;100.00;102665.63;5045292;28;20040;-80
2023/01/24 09:54:59;;;;;;;4.30;2.80;;;;;;;7.42;100.00;102669.13;5035014;28;20024;-80
2023/01/24 09:58:00;;;;;;;4.53;3.10;;;;;;;7.44;100.00;102673.38;5036584;28;20499;-81
2023/01/24 10:00:33;;;;;;;4.07;2.83;;;;;;;7.46;100.00;102675.94;5031027;28;20043;-81
2023/01/24 10:03:00;;;;;;;3.10;2.80;;;;;;;7.42;100.00;102675.22;5022442;28;20036;-80
2023/01/24 10:05:38;;;;;;;3.35;2.90;;;;;;;7.45;100.00;102677.69;5033547;28;20091;-80
2023/01/24 10:08:24;;;;;;;4.60;2.35;;;;;;;7.48;100.00;102682.00;5036396;28;20063;-81
2023/01/24 10:11:00;;;;;;;4.28;2.83;;;;;;;7.48;100.00;102679.38;4986601;28;20095;-80
2023/01/24 10:13:50;;;;;;;3.80;2.47;;;;;;;7.54;100.00;102688.75;5044188;28;20052;-80
2023/01/24 10:16:36;;;;;;;4.72;3.10;;;;;;;7.54;100.00;102684.34;5012812;28;20509;-80
2023/01/24 10:19:21;;;;;;;6.20;3.90;;;;;;;7.52;100.00;102678.28;5014434;28;20529;-80
2023/01/24 10:22:00;;;;;;;6.32;3.95;;;;;;;7.51;100.00;102668.69;5017577;28;20032;-79
2023/01/24 10:24:35;;;;;;;6.70;3.85;;;;;;;7.58;100.00;102669.25;5009946;28;21004;-79
2023/01/24 10:27:07;;;;;;;18.65;4.13;;;;;;;7.57;100.00;102678.94;5054632;28;20033;-80
2023/01/24 10:29:38;;;;;;;15.05;3.53;;;;;;;7.62;100.00;102677.88;5051713;28;20068;-79
2023/01/24 10:32:11;;;;;;;7.75;3.60;;;;;;;7.61;100.00;102676.19;5051731;28;20453;-79
2023/01/24 10:35:16;;;;;;;5.90;3.53;;;;;;;7.61;100.00;102681.44;5046054;28;20059;-79
2023/01/24 10:37:45;;;;;;;6.13;3.90;;;;;;;7.61;100.00;102679.66;5041740;28;20098;-80
2023/01/24 10:40:12;;;;;;;11.02;4.30;;;;;;;7.60;100.00;102683.22;5041926;28;20039;-79
2023/01/24 10:42:38;;;;;;;27.58;5.28;;;;;;;7.58;100.00;102687.69;5056611;28;20028;-79
2023/01/24 10:45:21;;;;;;;13.82;5.43;;;;;;;7.61;100.00;102691.97;5037403;28;20056;-80
2023/01/24 10:47:56;;;;;;;17.55;5.60;;;;;;;7.53;100.00;102687.06;5025118;28;20055;-79
2023/01/24 10:50:23;;;;;;;25.50;5.85;;;;;;;7.55;100.00;102693.06;5034703;28;20051;-79
2023/01/24 10:52:49;;;;;;;35.47;6.85;;;;;;;7.55;100.00;102690.44;5041423;28;20027;-79
2023/01/24 10:55:29;;;;;;;19.02;7.13;;;;;;;7.56;100.00;102687.75;5035535;28;20044;-79
2023/01/24 10:57:55;;;;;;;32.13;11.00;;;;;;;7.57;100.00;102686.84;5053872;28;20029;-80
2023/01/24 11:00:27;;;;;;;37.40;12.43;;;;;;;7.60;100.00;102682.38;5037422;28;20111;-80
2023/01/24 11:02:56;;;;;;;32.35;10.55;;;;;;;7.64;100.00;102676.03;5029969;28;20042;-80
2023/01/24 11:05:23;;;;;;;33.25;8.73;;;;;;;7.67;100.00;102676.75;5057709;28;20126;-80
2023/01/24 11:07:58;;;;;;;18.05;7.05;;;;;;;7.72;100.00;102673.06;5060330;28;20043;-80
2023/01/24 11:10:30;;;;;;;27.23;5.90;;;;;;;7.78;100.00;102676.25;5057816;28;20036;-80
2023/01/24 11:13:01;;;;;;;45.30;6.28;;;;;;;7.81;100.00;102670.00;5038285;28;20401;-80
2023/01/24 11:15:32;;;;;;;19.90;6.20;;;;;;;7.87;100.00;102666.25;5063884;28;20033;-79
2023/01/24 11:18:12;;;;;;;13.30;4.45;;;;;;;7.88;100.00;102660.03;5051044;28;20044;-79
2023/01/24 11:20:38;;;;;;;17.73;3.97;;;;;;;7.91;100.00;102658.13;5054926;28;20166;-79
2023/01/24 11:23:24;;;;;;;22.63;4.57;;;;;;;7.99;100.00;102656.91;5037067;28;20056;-79
2023/01/24 11:25:58;;;;;;;10.10;4.30;;;;;;;8.03;100.00;102653.19;5044729;28;20044;-79
2023/01/24 11:28:27;;;;;;;8.10;3.97;;;;;;;8.08;100.00;102648.56;5024094;28;20095;-80
2023/01/24 11:30:56;;;;;;;4.55;3.40;;;;;;;8.13;100.00;102643.94;5046370;28;20041;-79
2023/01/24 11:33:40;;;;;;;5.07;3.40;;;;;;;8.15;100.00;102641.22;5046209;28;20098;-79
2023/01/24 11:36:34;;;;;;;6.90;3.50;;;;;;;8.23;100.00;102638.22;5040818;28;20056;-79
2023/01/24 11:39:27;;;;;;;5.05;3.65;;;;;;;8.25;100.00;102631.09;5057271;28;20112;-80
2023/01/24 11:42:05;;;;;;;3.95;3.40;;;;;;;8.27;100.00;102624.81;5025242;28;20090;-80
2023/01/24 11:45:05;;;;;;;4.22;3.15;;;;;;;8.32;100.00;102620.19;5023122;28;20028;-80
2023/01/24 11:47:44;;;;;;;3.95;3.55;;;;;;;8.36;100.00;102622.66;5055331;28;20033;-80
2023/01/24 11:50:16;;;;;;;4.82;3.45;;;;;;;8.37;100.00;102621.72;5049929;28;20127;-79
2023/01/24 11:53:01;;;;;;;5.20;3.72;;;;;;;8.40;100.00;102613.66;5034944;28;20582;-79
2023/01/24 11:55:39;;;;;;;3.97;3.17;;;;;;;8.46;100.00;102618.63;5039938;28;20045;-80
2023/01/24 11:58:11;;;;;;;4.90;3.80;;;;;;;8.49;100.00;102612.38;5050377;28;20028;-80
2023/01/24 12:00:48;;;;;;;4.70;3.63;;;;;;;8.54;100.00;102615.59;5064204;28;20390;-80
2023/01/24 12:03:42;;;;;;;7.00;4.18;;;;;;;8.59;100.00;102607.50;5052814;28;20066;-80
2023/01/24 12:06:10;;;;;;;7.15;5.97;;;;;;;8.58;100.00;102611.06;5043508;28;20055;-80
2023/01/24 12:08:50;;;;;;;10.48;7.10;;;;;;;8.65;100.00;102608.03;5046103;28;20178;-79
2023/01/24 12:11:25;;;;;;;10.00;7.72;;;;;;;8.67;100.00;102610.59;5008627;28;20064;-80
2023/01/24 12:14:35;;;;;;;9.55;6.75;;;;;;;8.70;100.00;102597.28;5050951;28;20029;-80
2023/01/24 12:17:50;;;;;;;8.02;5.70;;;;;;;8.81;100.00;102599.34;5041961;28;20021;-80
2023/01/24 12:20:41;;;;;;;16.80;13.65;;;;;;;8.90;100.00;102600.69;5041219;28;20064;-80
2023/01/24 12:23:21;;;;;;;6.13;3.92;;;;;;;8.95;100.00;102601.25;5054816;28;20115;-80